Time;durP1;ratioP1;P1;durP2;ratioP2;P2;SDS_P1;SDS_P2;PMS_P1;PMS_P2;Temp;Humidity;BMP_temperature;BMP_pressure;BME280_temperature;BME280_humidity;BME280_pressure;Samples;Min_cycle;Max_cycle;Signal;HPM_P1;HPM_P2
2023/07/07 00:00:43;;;;;;;0.83;0.20;;;;;;;21.23;64.85;99369.38;5014577;28;20295;-57
2023/07/07 00:03:15;;;;;;;0.60;0.30;;;;;;;21.46;64.77;99371.16;5024773;28;20367;-59
2023/07/07 00:05:47;;;;;;;0.30;0.30;;;;;;;21.79;64.29;99361.59;5015083;28;20310;-58
2023/07/07 00:08:19;;;;;;;0.30;0.30;;;;;;;22.08;64.06;99361.97;5024506;28;20287;-57
2023/07/07 00:10:51;;;;;;;4.70;0.43;;;;;;;22.36;63.38;99373.97;5033383;28;20763;-57
2023/07/07 00:13:27;;;;;;;0.33;0.20;;;;;;;22.29;61.31;99362.16;5043479;28;20271;-58
2023/07/07 00:16:03;;;;;;;0.30;0.30;;;;;;;22.44;61.59;99372.50;5028601;28;20591;-57
2023/07/07 00:18:34;;;;;;;0.20;0.20;;;;;;;22.64;59.28;99379.78;5023686;28;20049;-57
2023/07/07 00:21:06;;;;;;;2.00;0.20;;;;;;;22.59;59.36;99376.63;5013404;28;20482;-57
2023/07/07 00:23:38;;;;;;;0.10;0.10;;;;;;;22.19;60.80;99387.75;5023320;28;20037;-57
2023/07/07 00:26:11;;;;;;;0.20;0.20;;;;;;;22.05;62.41;99398.63;5024152;28;20436;-56
2023/07/07 00:28:44;;;;;;;0.20;0.20;;;;;;;21.83;62.38;99391.44;5013461;28;20272;-57
2023/07/07 00:31:16;;;;;;;0.20;0.20;;;;;;;21.59;62.35;99388.84;5023981;28;20356;-59
2023/07/07 00:33:51;;;;;;;0.10;0.10;;;;;;;21.43;64.01;99387.34;5013734;28;20071;-57
2023/07/07 00:36:23;;;;;;;0.20;0.20;;;;;;;21.65;62.74;99404.34;5023392;28;20140;-57
2023/07/07 00:38:55;;;;;;;1.30;0.23;;;;;;;22.04;63.28;99407.56;5013916;28;20060;-56
2023/07/07 00:41:27;;;;;;;0.57;0.20;;;;;;;22.37;61.96;99404.97;5023657;28;20199;-57
2023/07/07 00:44:05;;;;;;;1.57;0.20;;;;;;;22.34;62.45;99402.53;5016781;28;20340;-57
2023/07/07 00:46:38;;;;;;;3.73;0.30;;;;;;;22.24;63.34;99403.38;5026913;28;20625;-57
2023/07/07 00:49:14;;;;;;;2.00;0.30;;;;;;;22.21;62.49;99404.44;5016213;28;20056;-59
2023/07/07 00:51:49;;;;;;;0.87;0.20;;;;;;;21.48;62.30;99326.72;5016750;28;20151;-56
2023/07/07 00:54:26;;;;;;;0.20;0.20;;;;;;;21.99;63.27;99402.63;5026973;28;20478;-57
2023/07/07 00:56:58;;;;;;;4.00;0.43;;;;;;;22.10;64.86;99404.44;5016750;28;20101;-57
2023/07/07 00:59:36;;;;;;;1.07;0.23;;;;;;;22.16;63.11;99401.28;5027007;28;20157;-58
2023/07/07 01:02:11;;;;;;;0.27;0.23;;;;;;;22.13;64.17;99396.19;5016048;28;20356;-57
2023/07/07 01:04:48;;;;;;;0.10;0.10;;;;;;;22.08;63.99;99398.38;5016318;28;20283;-56
2023/07/07 01:07:24;;;;;;;0.57;0.20;;;;;;;22.05;64.19;99393.31;5026664;28;20041;-58
2023/07/07 01:09:55;;;;;;;1.20;0.30;;;;;;;22.07;63.70;99396.69;5015715;28;20037;-57
2023/07/07 01:12:26;;;;;;;2.57;0.60;;;;;;;21.88;63.78;99395.44;5031865;28;20267;-56
2023/07/07 01:15:00;;;;;;;3.93;0.37;;;;;;;21.98;63.87;99399.09;5016878;28;20590;-56
2023/07/07 01:17:47;;;;;;;10.43;0.90;;;;;;;22.19;64.19;99390.41;5026523;28;20443;-57
2023/07/07 01:20:30;;;;;;;0.37;0.20;;;;;;;22.31;62.21;99393.94;5025882;28;20040;-57
2023/07/07 01:23:29;;;;;;;2.33;0.40;;;;;;;22.40;63.81;99391.41;5015612;28;20801;-59
2023/07/07 01:26:26;;;;;;;3.38;0.35;;;;;;;22.41;62.16;99392.25;5015277;28;20296;-58
2023/07/07 01:29:28;;;;;;;1.73;0.30;;;;;;;22.58;63.75;99396.22;5016321;28;20164;-56
2023/07/07 01:32:06;;;;;;;1.90;0.20;;;;;;;22.57;62.70;99386.56;5015344;28;20279;-57
2023/07/07 01:34:38;;;;;;;3.20;0.30;;;;;;;22.25;62.20;99384.63;5024495;28;20067;-58
2023/07/07 01:37:09;;;;;;;1.83;0.20;;;;;;;21.90;64.03;99366.09;5015844;28;20365;-59
2023/07/07 01:39:42;;;;;;;2.40;0.50;;;;;;;22.11;64.32;99387.50;5005141;28;20050;-59
2023/07/07 01:42:20;;;;;;;0.47;0.20;;;;;;;22.28;64.61;99388.88;5018052;28;20295;-58
2023/07/07 01:45:02;;;;;;;0.68;0.22;;;;;;;22.19;64.89;99401.06;4998557;28;20063;-56
2023/07/07 01:47:39;;;;;;;2.00;0.30;;;;;;;22.03;64.23;99411.19;5017754;28;20041;-59
2023/07/07 01:50:14;;;;;;;2.80;0.40;;;;;;;21.73;64.09;99415.25;5008976;28;20040;-59
2023/07/07 01:52:50;;;;;;;2.73;0.50;;;;;;;21.60;64.81;99409.16;5009801;28;20060;-58
2023/07/07 01:55:24;;;;;;;1.20;0.30;;;;;;;21.65;65.01;99428.28;5015475;28;20085;-57
2023/07/07 01:57:59;;;;;;;0.93;0.30;;;;;;;21.56;65.19;99429.81;5009719;28;20276;-59
2023/07/07 02:00:32;;;;;;;2.07;0.30;;;;;;;21.66;66.05;99430.78;5020156;28;20284;-58
2023/07/07 02:03:10;;;;;;;1.20;0.30;;;;;;;21.80;66.15;99432.44;5010535;28;20127;-58
2023/07/07 02:05:41;;;;;;;0.40;0.30;;;;;;;21.71;64.74;99430.44;5011032;28;20295;-58
2023/07/07 02:08:11;;;;;;;1.33;0.40;;;;;;;21.74;65.20;99432.88;5017801;28;20283;-58
2023/07/07 02:10:42;;;;;;;0.77;0.50;;;;;;;21.75;66.52;99429.25;5007904;28;20284;-58
2023/07/07 02:13:12;;;;;;;0.73;0.30;;;;;;;21.68;66.53;99426.22;5018343;28;20329;-57
2023/07/07 02:15:43;;;;;;;1.90;0.40;;;;;;;21.56;67.24;99424.47;5007961;28;20758;-58
2023/07/07 02:18:15;;;;;;;3.50;0.40;;;;;;;21.35;66.37;99442.03;5018780;28;20279;-58
2023/07/07 02:20:46;;;;;;;1.13;0.57;;;;;;;21.38;66.85;99445.28;5010745;28;20295;-58
2023/07/07 02:23:17;;;;;;;0.87;0.30;;;;;;;21.41;67.81;99442.41;5016659;28;20759;-58
2023/07/07 02:25:48;;;;;;;1.47;0.37;;;;;;;21.36;67.64;99449.84;5008024;28;20287;-57
2023/07/07 02:28:18;;;;;;;0.40;0.30;;;;;;;21.31;67.40;99447.53;5019241;28;20318;-58
2023/07/07 02:30:49;;;;;;;1.93;0.30;;;;;;;21.16;68.01;99442.50;5007105;28;20294;-58
2023/07/07 02:33:31;;;;;;;4.27;0.50;;;;;;;21.10;67.46;99449.97;5020703;28;20283;-57
2023/07/07 02:36:06;;;;;;;0.83;0.40;;;;;;;21.06;67.50;99453.81;5006632;28;20741;-59
2023/07/07 02:38:38;;;;;;;0.60;0.33;;;;;;;21.14;67.71;99449.75;5020270;28;20935;-57
2023/07/07 02:41:08;;;;;;;3.07;0.40;;;;;;;21.24;69.05;99450.75;5010767;28;20287;-56
2023/07/07 02:43:39;;;;;;;0.33;0.30;;;;;;;21.31;67.60;99454.66;5007945;28;20754;-58
2023/07/07 02:46:10;;;;;;;2.10;0.50;;;;;;;21.31;67.93;99452.00;5020229;28;20385;-57
2023/07/07 02:48:44;;;;;;;2.10;0.67;;;;;;;21.40;66.76;99456.69;5005189;28;20375;-58
2023/07/07 02:51:15;;;;;;;0.77;0.30;;;;;;;21.29;66.64;99443.28;5018658;28;20348;-57
2023/07/07 02:53:45;;;;;;;2.10;0.50;;;;;;;21.26;66.39;99454.16;5009621;28;20362;-58
2023/07/07 02:56:17;;;;;;;1.60;0.30;;;;;;;21.26;66.86;99448.84;5015915;28;20390;-58
2023/07/07 02:58:48;;;;;;;0.87;0.40;;;;;;;21.22;67.37;99460.69;5007776;28;20304;-58
2023/07/07 03:01:23;;;;;;;0.77;0.40;;;;;;;21.14;67.06;99444.44;5020751;28;20282;-59
2023/07/07 03:03:57;;;;;;;2.23;0.90;;;;;;;21.10;66.57;99447.31;5005513;28;20323;-57
2023/07/07 03:06:28;;;;;;;3.73;0.53;;;;;;;21.11;67.56;99456.97;5017437;28;20298;-58
2023/07/07 03:08:59;;;;;;;1.43;0.40;;;;;;;21.08;67.63;99462.50;5007921;28;20279;-57
2023/07/07 03:11:30;;;;;;;6.20;0.70;;;;;;;21.05;67.76;99473.38;5017650;28;20291;-57
2023/07/07 03:14:01;;;;;;;2.83;0.83;;;;;;;20.99;68.45;99462.31;5009832;28;20293;-58
2023/07/07 03:16:34;;;;;;;0.60;0.50;;;;;;;20.84;69.10;99456.31;5016480;28;20304;-57
2023/07/07 03:19:09;;;;;;;1.13;0.50;;;;;;;20.82;68.75;99471.53;5009172;28;20298;-57
2023/07/07 03:21:40;;;;;;;0.60;0.50;;;;;;;21.00;69.18;99464.88;5006646;28;20657;-58
2023/07/07 03:24:12;;;;;;;1.83;0.33;;;;;;;21.37;68.29;99467.53;5016151;28;20320;-56
2023/07/07 03:26:43;;;;;;;0.50;0.40;;;;;;;21.57;65.59;99467.84;5009784;28;20369;-59
2023/07/07 03:29:14;;;;;;;0.77;0.50;;;;;;;21.80;67.39;99464.34;5018442;28;20288;-58
2023/07/07 03:31:45;;;;;;;2.63;0.67;;;;;;;22.12;67.11;99469.00;5008008;28;20283;-60
2023/07/07 03:34:18;;;;;;;0.97;0.57;;;;;;;22.00;64.41;99475.28;5016998;28;20318;-58
2023/07/07 03:36:49;;;;;;;1.60;0.93;;;;;;;22.02;64.88;99468.03;5012794;28;20307;-59
2023/07/07 03:39:22;;;;;;;2.20;0.40;;;;;;;21.76;63.75;99462.84;5024317;28;20276;-57
2023/07/07 03:41:54;;;;;;;0.50;0.50;;;;;;;21.71;64.22;99480.97;5014780;28;20286;-58
2023/07/07 03:44:27;;;;;;;1.37;0.60;;;;;;;21.98;65.79;99472.72;5024049;28;20365;-61
2023/07/07 03:46:58;;;;;;;0.67;0.40;;;;;;;22.07;62.56;99471.19;5008627;28;20283;-58
2023/07/07 03:49:32;;;;;;;4.63;0.93;;;;;;;21.82;63.90;99473.03;5024431;28;20059;-59
2023/07/07 03:52:04;;;;;;;0.60;0.60;;;;;;;21.92;65.32;99487.34;5013864;28;20080;-57
2023/07/07 03:54:36;;;;;;;1.57;0.50;;;;;;;22.02;64.82;99481.34;5024956;28;20753;-58
2023/07/07 03:57:08;;;;;;;2.87;0.90;;;;;;;22.28;64.58;99477.53;5013987;28;20275;-60
2023/07/07 03:59:40;;;;;;;4.83;0.90;;;;;;;22.25;64.24;99480.44;5014824;28;20055;-59
2023/07/07 04:02:12;;;;;;;1.77;0.90;;;;;;;22.35;65.07;99480.56;5018483;28;20386;-58
2023/07/07 04:04:46;;;;;;;1.47;1.00;;;;;;;22.43;65.48;99487.94;5014146;28;20288;-57
2023/07/07 04:07:19;;;;;;;1.60;0.77;;;;;;;22.30;63.72;99488.91;5023783;28;20459;-57
2023/07/07 04:09:51;;;;;;;1.87;0.87;;;;;;;22.14;64.68;99483.03;5013451;28;20053;-56
2023/07/07 04:12:23;;;;;;;3.20;1.20;;;;;;;22.10;64.79;99481.59;5023641;28;20140;-58
2023/07/07 04:14:55;;;;;;;3.73;0.80;;;;;;;22.29;63.41;99484.56;5013899;28;20379;-56
2023/07/07 04:17:27;;;;;;;1.53;0.70;;;;;;;22.37;63.75;99483.97;5025200;28;20415;-56
2023/07/07 04:20:02;;;;;;;3.43;1.00;;;;;;;22.56;62.43;99488.69;5017638;28;20080;-56
2023/07/07 04:22:34;;;;;;;2.63;0.70;;;;;;;22.27;62.08;99477.66;5027829;28;20042;-57
2023/07/07 04:25:14;;;;;;;0.97;0.60;;;;;;;22.07;61.90;99471.19;5017131;28;20069;-59
2023/07/07 04:27:47;;;;;;;1.63;0.70;;;;;;;22.13;63.18;99498.16;5017140;28;20053;-58
2023/07/07 04:30:19;;;;;;;0.50;0.50;;;;;;;22.13;62.55;99503.47;5027310;28;20459;-56
2023/07/07 04:32:52;;;;;;;1.43;0.60;;;;;;;22.02;62.49;99505.28;5017484;28;20056;-61
2023/07/07 04:35:26;;;;;;;1.23;0.77;;;;;;;21.97;63.20;99509.13;5026851;28;20458;-59
2023/07/07 04:37:58;;;;;;;0.90;0.50;;;;;;;21.87;63.27;99508.13;5016531;28;20497;-58
2023/07/07 04:40:32;;;;;;;1.83;0.50;;;;;;;21.79;62.74;99505.19;5027096;28;20045;-59
2023/07/07 04:43:04;;;;;;;2.17;0.80;;;;;;;21.56;63.63;99508.69;5016597;28;20377;-61
2023/07/07 04:45:36;;;;;;;0.83;0.77;;;;;;;21.50;64.80;99510.84;5027240;28;20739;-58
2023/07/07 04:48:08;;;;;;;1.87;0.50;;;;;;;21.25;63.10;99506.47;5016818;28;20040;-59
2023/07/07 04:50:42;;;;;;;0.80;0.60;;;;;;;21.17;63.74;99503.50;5017819;28;20287;-60
2023/07/07 04:53:14;;;;;;;4.20;0.83;;;;;;;21.30;65.38;99520.25;5027291;28;20275;-58
2023/07/07 04:55:47;;;;;;;4.23;1.03;;;;;;;21.26;65.32;99528.56;5017081;28;20614;-61
2023/07/07 04:58:20;;;;;;;1.10;0.73;;;;;;;21.31;66.05;99511.31;5045655;28;20612;-59
2023/07/07 05:00:52;;;;;;;3.93;1.10;;;;;;;21.47;66.17;99526.19;5032635;28;20553;-58
2023/07/07 05:03:24;;;;;;;3.43;0.83;;;;;;;21.56;67.09;99529.97;5026373;28;20275;-58
2023/07/07 05:05:59;;;;;;;2.37;1.00;;;;;;;21.56;67.27;99529.97;5016636;28;20629;-58
2023/07/07 05:08:33;;;;;;;2.63;1.00;;;;;;;21.57;67.46;99534.31;5026897;28;20550;-59
2023/07/07 05:11:06;;;;;;;1.47;0.90;;;;;;;21.59;66.95;99535.94;5016345;28;20279;-57
2023/07/07 05:13:38;;;;;;;5.13;1.30;;;;;;;21.63;67.43;99536.53;5025452;28;20059;-59
2023/07/07 05:16:12;;;;;;;4.87;1.23;;;;;;;21.71;67.37;99537.66;5026217;28;20068;-57
2023/07/07 05:18:44;;;;;;;3.00;1.07;;;;;;;21.76;67.54;99532.00;5015522;28;20388;-58
2023/07/07 05:21:20;;;;;;;7.23;1.30;;;;;;;21.76;66.87;99540.81;5026269;28;20033;-58
2023/07/07 05:23:54;;;;;;;6.73;1.30;;;;;;;21.73;67.02;99548.19;5015895;28;20472;-61
2023/07/07 05:26:27;;;;;;;5.73;1.10;;;;;;;21.66;66.79;99546.94;5025988;28;20448;-60
2023/07/07 05:29:02;;;;;;;2.60;0.80;;;;;;;21.50;66.07;99548.06;5016259;28;20277;-61
2023/07/07 05:31:37;;;;;;;2.80;1.17;;;;;;;21.48;66.81;99549.97;5025925;28;20279;-57
2023/07/07 05:34:11;;;;;;;2.20;1.03;;;;;;;21.46;67.35;99557.22;5015786;28;20036;-60
2023/07/07 05:36:44;;;;;;;4.30;1.27;;;;;;;21.28;65.99;99547.91;5007783;28;20049;-62
2023/07/07 05:39:14;;;;;;;2.03;1.20;;;;;;;21.08;66.28;99557.28;5017764;28;20115;-62
2023/07/07 05:41:45;;;;;;;3.20;1.30;;;;;;;21.10;67.57;99566.84;5010756;28;20314;-62
2023/07/07 05:44:15;;;;;;;2.00;0.97;;;;;;;21.06;65.73;99554.72;5017193;28;20374;-59
2023/07/07 05:46:46;;;;;;;1.77;0.60;;;;;;;21.16;66.80;99559.41;5010589;28;20398;-61
2023/07/07 05:49:17;;;;;;;1.23;0.80;;;;;;;21.19;66.21;99553.88;5020228;28;20276;-61
2023/07/07 05:51:49;;;;;;;1.33;0.80;;;;;;;21.10;65.80;99550.91;4999846;28;20139;-60
2023/07/07 05:54:21;;;;;;;2.83;0.60;;;;;;;21.10;65.05;99544.75;5018448;28;20306;-63
2023/07/07 05:56:54;;;;;;;1.47;1.00;;;;;;;21.19;65.86;99548.56;5010463;28;20319;-62
2023/07/07 05:59:24;;;;;;;1.17;0.73;;;;;;;21.24;65.37;99557.03;5021743;28;20387;-59
2023/07/07 06:01:55;;;;;;;1.00;0.80;;;;;;;21.36;66.54;99561.47;5010274;28;20378;-62
2023/07/07 06:04:25;;;;;;;2.77;1.00;;;;;;;21.90;66.93;99566.41;5019275;28;20275;-61
2023/07/07 06:06:58;;;;;;;2.97;0.90;;;;;;;21.88;64.24;99564.81;5006627;28;20769;-60
2023/07/07 06:09:28;;;;;;;1.27;0.83;;;;;;;21.75;63.17;99562.22;5018963;28;20299;-58
2023/07/07 06:11:59;;;;;;;1.30;0.90;;;;;;;21.12;63.29;99495.03;5010784;28;20279;-59
2023/07/07 06:14:30;;;;;;;0.83;0.70;;;;;;;21.68;65.09;99560.97;5017380;28;20102;-58
2023/07/07 06:17:00;;;;;;;2.17;0.90;;;;;;;21.84;65.16;99561.53;5009670;28;20602;-58
2023/07/07 06:19:31;;;;;;;2.07;1.20;;;;;;;21.92;64.25;99558.31;5016874;28;20307;-61
2023/07/07 06:22:03;;;;;;;2.17;1.57;;;;;;;21.71;63.21;99531.50;5009129;28;20322;-62
2023/07/07 06:24:34;;;;;;;2.87;1.70;;;;;;;21.82;63.79;99563.47;5019208;28;20056;-59
2023/07/07 06:27:04;;;;;;;3.97;2.30;;;;;;;21.85;63.54;99568.53;5007219;28;20152;-61
2023/07/07 06:29:35;;;;;;;3.77;2.43;;;;;;;21.60;64.41;99571.31;5019011;28;20098;-60
2023/07/07 06:32:07;;;;;;;3.10;2.10;;;;;;;21.36;64.30;99569.44;5005959;28;20135;-61
2023/07/07 06:34:37;;;;;;;4.13;2.63;;;;;;;21.12;64.79;99572.06;5012661;28;20279;-62
2023/07/07 06:37:10;;;;;;;4.77;2.57;;;;;;;20.96;65.52;99569.63;5018427;28;20156;-62
2023/07/07 06:39:40;;;;;;;9.00;2.50;;;;;;;20.78;65.88;99571.78;5004689;28;20060;-59
2023/07/07 06:42:11;;;;;;;5.67;2.70;;;;;;;20.72;66.97;99576.66;5016263;28;20292;-57
2023/07/07 06:44:42;;;;;;;5.77;2.40;;;;;;;20.60;67.72;99579.22;5009786;28;20290;-60
2023/07/07 06:47:15;;;;;;;6.17;2.67;;;;;;;20.59;68.87;99572.22;5016544;28;20414;-61
2023/07/07 06:49:46;;;;;;;4.70;2.47;;;;;;;20.32;68.70;99550.16;4995167;28;20294;-60
2023/07/07 06:52:18;;;;;;;5.63;2.43;;;;;;;20.29;69.39;99584.88;5012762;28;20288;-59
2023/07/07 06:54:48;;;;;;;7.87;2.63;;;;;;;20.02;70.06;99572.53;4992975;28;20295;-60
2023/07/07 06:57:20;;;;;;;7.23;2.80;;;;;;;20.06;70.68;99589.91;5010715;28;20291;-59
2023/07/07 06:59:52;;;;;;;7.77;2.47;;;;;;;20.09;72.00;99579.09;5000540;28;20328;-59
2023/07/07 07:02:23;;;;;;;7.17;2.93;;;;;;;20.06;72.59;99574.00;5019796;28;20287;-61
2023/07/07 07:04:53;;;;;;;4.43;2.70;;;;;;;19.98;72.47;99571.00;5007319;28;20330;-62
2023/07/07 07:07:32;;;;;;;10.03;3.90;;;;;;;19.90;72.50;99578.63;5012349;28;20343;-59
2023/07/07 07:10:05;;;;;;;4.30;2.50;;;;;;;19.82;71.74;99577.34;5002077;28;20399;-58
2023/07/07 07:12:39;;;;;;;7.40;3.30;;;;;;;19.78;72.13;99574.97;5011205;28;20334;-59
2023/07/07 07:15:10;;;;;;;3.37;2.30;;;;;;;19.77;71.47;99568.84;5001264;28;20288;-60
2023/07/07 07:17:41;;;;;;;6.40;2.87;;;;;;;19.75;72.41;99570.72;5001842;28;20599;-60
2023/07/07 07:20:13;;;;;;;2.70;2.00;;;;;;;19.85;72.44;99580.75;5010033;28;20283;-61
2023/07/07 07:22:46;;;;;;;13.40;2.90;;;;;;;19.88;72.67;99569.94;5000331;28;20288;-59
2023/07/07 07:25:20;;;;;;;5.03;2.20;;;;;;;19.96;73.11;99573.75;5010860;28;20291;-59
2023/07/07 07:27:58;;;;;;;5.13;2.53;;;;;;;20.00;72.71;99580.56;5000372;28;20299;-59
2023/07/07 07:30:35;;;;;;;4.90;2.30;;;;;;;19.91;72.59;99569.72;5012496;28;20281;-58
2023/07/07 07:33:12;;;;;;;5.73;2.23;;;;;;;19.64;72.68;99529.94;5002288;28;20367;-60
2023/07/07 07:35:44;;;;;;;3.83;2.37;;;;;;;19.95;72.92;99565.91;5001040;28;20739;-60
2023/07/07 07:38:18;;;;;;;6.40;2.30;;;;;;;20.04;72.80;99575.91;5010758;28;20378;-59
2023/07/07 07:40:52;;;;;;;5.53;2.70;;;;;;;19.97;71.88;99574.63;5001355;28;20387;-58
2023/07/07 07:43:24;;;;;;;4.30;2.37;;;;;;;19.92;71.49;99566.97;5010672;28;20286;-60
2023/07/07 07:45:57;;;;;;;5.33;2.43;;;;;;;19.87;71.54;99562.91;5003047;28;20276;-58
2023/07/07 07:48:29;;;;;;;3.67;2.13;;;;;;;19.80;71.31;99563.31;5013107;28;20354;-58
2023/07/07 07:51:01;;;;;;;7.83;2.70;;;;;;;19.76;71.16;99560.97;5001840;28;20630;-59
2023/07/07 07:53:42;;;;;;;5.87;2.43;;;;;;;19.81;72.43;99559.72;5005133;28;20346;-60
2023/07/07 07:56:13;;;;;;;3.40;2.33;;;;;;;19.93;74.00;99549.25;5014726;28;20297;-57
2023/07/07 07:58:45;;;;;;;5.27;2.70;;;;;;;19.93;73.48;99546.59;5004497;28;20843;-59
2023/07/07 08:01:16;;;;;;;12.50;2.93;;;;;;;19.93;74.22;99562.50;5015259;28;20603;-60
2023/07/07 08:03:48;;;;;;;7.17;2.47;;;;;;;19.65;75.65;99516.59;5006199;28;20315;-59
2023/07/07 08:06:21;;;;;;;3.70;2.50;;;;;;;20.01;76.88;99560.19;5019235;28;20653;-58
2023/07/07 08:08:55;;;;;;;5.43;2.00;;;;;;;19.99;76.94;99562.09;5013143;28;20395;-58
2023/07/07 08:11:50;;;;;;;3.80;2.40;;;;;;;19.71;76.92;99537.41;5022905;28;20300;-59
2023/07/07 08:14:27;;;;;;;4.63;2.57;;;;;;;19.78;76.42;99569.69;5023581;28;20290;-60
2023/07/07 08:17:04;;;;;;;9.93;2.80;;;;;;;19.61;76.54;99578.69;5013670;28;21116;-59
2023/07/07 08:19:38;;;;;;;4.70;2.50;;;;;;;19.13;76.91;99509.38;5022710;28;20630;-59
2023/07/07 08:22:16;;;;;;;7.23;2.33;;;;;;;19.44;77.18;99573.63;5012616;28;20299;-59
2023/07/07 08:24:51;;;;;;;3.20;2.30;;;;;;;19.42;78.44;99572.88;5011967;28;20284;-61
2023/07/07 08:27:25;;;;;;;7.07;2.63;;;;;;;19.37;78.91;99566.06;5023203;28;20280;-59
2023/07/07 08:30:00;;;;;;;5.60;2.50;;;;;;;19.44;79.96;99581.56;5014263;28;20671;-61
2023/07/07 08:32:31;;;;;;;4.00;2.40;;;;;;;19.51;80.35;99582.88;5022308;28;20387;-60
2023/07/07 08:35:02;;;;;;;5.07;2.47;;;;;;;19.56;80.38;99589.56;5011909;28;20376;-60
2023/07/07 08:37:35;;;;;;;4.53;2.70;;;;;;;19.59;80.38;99591.19;5021832;28;20303;-60
2023/07/07 08:40:15;;;;;;;7.57;4.60;;;;;;;19.63;79.95;99592.69;5012454;28;20319;-60
2023/07/07 08:42:49;;;;;;;9.50;4.13;;;;;;;19.66;79.36;99589.84;5012770;28;20295;-61
2023/07/07 08:45:22;;;;;;;8.00;3.43;;;;;;;19.67;79.87;99594.25;5022379;28;20288;-61
2023/07/07 08:48:08;;;;;;;9.33;5.67;;;;;;;19.64;79.48;99578.47;5012622;28;20279;-61
2023/07/07 08:50:47;;;;;;;8.87;5.33;;;;;;;19.77;79.23;99590.03;5014350;28;20303;-60
2023/07/07 08:53:43;;;;;;;10.02;3.00;;;;;;;19.78;79.00;99591.72;5022673;28;20642;-61
2023/07/07 08:56:24;;;;;;;4.53;2.30;;;;;;;19.74;77.33;99590.22;5011833;28;20453;-61
2023/07/07 08:59:05;;;;;;;30.37;4.53;;;;;;;19.67;77.70;99588.94;5001784;28;20288;-60
2023/07/07 09:05:39;;;;;;;21.67;2.80;;;;;;;19.66;78.39;99597.78;5011044;28;20414;-60
2023/07/07 09:08:19;;;;;;;14.10;2.60;;;;;;;19.66;77.21;99602.25;5021946;28;20741;-60
2023/07/07 09:10:55;;;;;;;;;;;;;;;19.74;76.48;99599.97;5014897;28;20859;-57
2023/07/07 09:13:33;;;;;;;7.67;2.10;;;;;;;19.73;76.14;99592.97;5032082;28;19924;-61
2023/07/07 09:16:13;;;;;;;6.07;1.70;;;;;;;19.71;75.78;99600.19;5020771;28;20278;-60
2023/07/07 09:18:50;;;;;;;3.83;2.60;;;;;;;19.54;75.74;99583.53;5020945;28;20287;-60
2023/07/07 09:21:31;;;;;;;9.27;5.90;;;;;;;19.52;76.13;99581.91;5031263;28;20287;-62
2023/07/07 09:24:13;;;;;;;6.33;2.70;;;;;;;19.54;76.28;99603.88;5021058;28;20785;-60
2023/07/07 09:26:47;;;;;;;13.80;4.00;;;;;;;19.50;75.99;99605.03;5020064;28;20295;-60
2023/07/07 09:29:25;;;;;;;4.47;1.77;;;;;;;19.60;75.26;99604.34;5031055;28;20981;-59
2023/07/07 09:31:58;;;;;;;6.93;2.25;;;;;;;19.87;75.14;99594.72;5014901;28;20311;-59
2023/07/07 09:34:30;;;;;;;4.20;2.07;;;;;;;19.97;74.38;99601.16;5031667;28;20051;-60
2023/07/07 09:37:09;;;;;;;9.63;1.83;;;;;;;20.25;72.62;99590.38;5022708;28;20275;-60
2023/07/07 09:40:14;;;;;;;7.28;1.40;;;;;;;20.32;71.03;99597.91;5022812;28;20298;-62
2023/07/07 09:42:58;;;;;;;5.63;1.60;;;;;;;19.78;71.55;99573.16;5012712;28;20032;-60
2023/07/07 09:45:40;;;;;;;7.27;1.70;;;;;;;19.69;72.14;99612.69;5030127;28;20314;-58
2023/07/07 09:48:23;;;;;;;5.40;2.27;;;;;;;19.56;72.57;99609.94;5020694;28;20279;-59
2023/07/07 09:51:03;;;;;;;2.60;1.73;;;;;;;19.69;72.84;99618.81;5022405;28;20370;-59
2023/07/07 09:53:38;;;;;;;5.10;2.27;;;;;;;19.58;73.60;99606.22;5030776;28;20952;-59
2023/07/07 09:56:21;;;;;;;4.70;3.27;;;;;;;19.29;73.97;99584.25;5019953;28;20286;-59
2023/07/07 09:59:02;;;;;;;6.43;2.30;;;;;;;19.36;74.68;99617.34;5022249;28;20609;-60
2023/07/07 10:01:39;;;;;;;9.83;2.07;;;;;;;19.39;75.30;99617.19;5032155;28;20291;-60
2023/07/07 10:04:15;;;;;;;6.80;2.27;;;;;;;19.32;75.98;99621.16;5021623;28;20275;-58
2023/07/07 10:06:52;;;;;;;8.23;1.90;;;;;;;19.20;76.06;99619.25;5013230;28;20851;-60
2023/07/07 10:09:26;;;;;;;8.37;2.20;;;;;;;19.10;76.89;99620.78;5031031;28;20267;-60
2023/07/07 10:11:58;;;;;;;4.33;2.10;;;;;;;18.87;77.11;99601.88;5020393;28;20297;-60
2023/07/07 10:14:34;;;;;;;6.53;3.10;;;;;;;18.58;77.88;99595.66;5031101;28;20760;-60
2023/07/07 10:17:25;;;;;;;5.17;2.47;;;;;;;18.59;78.68;99618.50;5020715;28;20749;-60
2023/07/07 10:20:00;;;;;;;2.53;2.00;;;;;;;18.41;79.86;99628.41;5014254;28;20289;-58
2023/07/07 10:22:35;;;;;;;5.10;2.40;;;;;;;18.10;80.70;99587.06;5032398;28;20267;-59
2023/07/07 10:25:07;;;;;;;6.17;2.00;;;;;;;18.27;81.16;99620.41;5021392;28;20283;-59
2023/07/07 10:27:39;;;;;;;4.20;2.10;;;;;;;18.35;81.00;99628.78;5022103;28;20275;-56
2023/07/07 10:30:15;;;;;;;5.83;2.90;;;;;;;18.22;81.33;99633.06;5031241;28;20863;-59
2023/07/07 10:32:56;;;;;;;4.73;3.10;;;;;;;18.05;81.68;99644.63;5019755;28;20648;-59
2023/07/07 10:35:28;;;;;;;3.20;2.20;;;;;;;17.90;82.47;99643.72;5030021;28;20290;-60
2023/07/07 10:38:03;;;;;;;4.73;2.37;;;;;;;17.84;83.17;99638.75;5021258;28;20299;-59
2023/07/07 10:40:35;;;;;;;4.37;2.23;;;;;;;17.81;83.73;99644.22;5030722;28;20318;-60
2023/07/07 10:43:12;;;;;;;5.40;2.60;;;;;;;17.82;84.29;99645.91;5019341;28;21152;-60
2023/07/07 10:45:48;;;;;;;4.80;2.60;;;;;;;17.68;84.64;99630.81;5018983;28;20403;-61
2023/07/07 10:48:22;;;;;;;6.73;3.30;;;;;;;17.62;85.39;99632.00;5031427;28;20804;-61
2023/07/07 10:51:05;;;;;;;8.13;3.57;;;;;;;17.60;86.14;99641.81;5021281;28;20381;-59
2023/07/07 10:53:54;;;;;;;3.47;2.10;;;;;;;17.48;86.50;99647.75;5029742;28;20391;-60
2023/07/07 10:56:31;;;;;;;4.43;2.10;;;;;;;17.36;87.12;99661.63;5031353;28;20279;-61
2023/07/07 10:59:23;;;;;;;3.57;1.97;;;;;;;17.27;87.78;99667.38;5019506;28;20062;-60
2023/07/07 11:02:04;;;;;;;3.87;2.30;;;;;;;17.18;88.11;99661.69;5020354;28;20834;-60
2023/07/07 11:05:03;;;;;;;7.63;2.60;;;;;;;17.08;89.23;99654.34;5030084;28;21183;-59
2023/07/07 11:07:52;;;;;;;6.10;2.63;;;;;;;17.19;89.50;99679.22;5029468;28;20291;-60
2023/07/07 11:10:43;;;;;;;9.48;3.70;;;;;;;16.77;89.03;99598.72;5030249;28;20053;-60
2023/07/07 11:13:24;;;;;;;5.43;3.27;;;;;;;17.25;88.48;99663.06;5019718;28;20048;-57
2023/07/07 11:16:02;;;;;;;5.60;2.83;;;;;;;17.21;88.54;99677.34;5020310;28;20276;-59
2023/07/07 11:18:55;;;;;;;5.90;2.80;;;;;;;17.02;88.87;99655.50;5030542;28;20283;-60
2023/07/07 11:21:41;;;;;;;4.07;2.57;;;;;;;16.74;88.91;99650.78;5030812;28;20384;-59
2023/07/07 11:24:20;;;;;;;6.07;2.50;;;;;;;16.77;89.90;99685.78;5021089;28;20298;-59
2023/07/07 11:27:43;;;;;;;6.77;2.17;;;;;;;16.52;91.26;99682.66;5019838;28;20295;-59
2023/07/07 11:30:25;;;;;;;3.67;2.40;;;;;;;16.45;92.18;99678.63;5011179;28;20723;-61
2023/07/07 11:33:07;;;;;;;4.47;2.43;;;;;;;16.43;92.67;99698.97;5019661;28;20376;-58
2023/07/07 11:35:54;;;;;;;3.33;2.33;;;;;;;16.38;93.20;99702.66;5025223;28;20280;-61
2023/07/07 11:38:51;;;;;;;6.37;2.60;;;;;;;16.35;93.69;99697.53;5028933;28;20295;-59
2023/07/07 11:41:33;;;;;;;6.13;2.13;;;;;;;16.31;93.99;99695.97;5037849;28;20394;-58
2023/07/07 11:44:25;;;;;;;8.33;2.70;;;;;;;16.26;94.30;99698.00;5017519;28;20879;-57
2023/07/07 11:47:17;;;;;;;7.20;2.50;;;;;;;15.79;94.52;99637.91;5019649;28;20302;-59
2023/07/07 11:50:06;;;;;;;7.83;2.80;;;;;;;16.06;94.70;99711.28;5017444;28;20374;-58
2023/07/07 11:52:50;;;;;;;7.60;2.50;;;;;;;15.93;95.64;99703.97;5028315;28;20761;-59
2023/07/07 11:55:36;;;;;;;7.83;2.73;;;;;;;15.32;96.61;99611.97;5028794;28;20052;-58
2023/07/07 11:58:23;;;;;;;3.17;2.27;;;;;;;15.88;97.45;99708.59;5019643;28;20315;-57
2023/07/07 12:01:05;;;;;;;5.77;2.60;;;;;;;15.73;97.42;99677.72;5018450;28;20660;-58
2023/07/07 12:03:50;;;;;;;3.03;1.90;;;;;;;16.04;97.00;99713.13;5028240;28;20678;-59
2023/07/07 12:06:28;;;;;;;5.97;2.33;;;;;;;16.01;96.66;99694.84;5023968;28;20808;-59
2023/07/07 12:09:07;;;;;;;3.78;2.00;;;;;;;16.22;95.89;99717.50;5009142;28;20293;-58
2023/07/07 12:11:47;;;;;;;4.73;2.07;;;;;;;16.18;95.83;99710.69;5011522;28;20037;-59
2023/07/07 12:14:40;;;;;;;5.70;2.03;;;;;;;16.15;95.98;99705.59;5020436;28;20314;-59
2023/07/07 12:17:17;;;;;;;2.80;1.47;;;;;;;16.14;96.12;99717.03;5008201;28;20295;-59